Archiv-/Tagesdaten

--Timestamp---	Temp	Chill	HIndex	Humid	Dewpt	 Wind 	HiWind	WindDir	Rain 	Barom	Solar	 ET  	 UV 
--------------	----	-----	------	-----	-----	------	------	-------	-----	-----	-----	-----	----
20110226 00:00	-2.7	-2.7	-2.7	63	-8.7	3	6	158	0.0	1028.6	0	0.025	0.0
20110226 00:05	-2.7	-2.7	-2.7	64	-8.5	3	6	158	0.0	1028.5	0	0.000	0.0
20110226 00:10	-2.7	-2.7	-2.7	64	-8.5	3	5	158	0.0	1028.4	0	0.000	0.0
20110226 00:15	-2.7	-2.7	-2.7	63	-8.8	3	6	158	0.0	1028.4	0	0.000	0.0
20110226 00:20	-2.8	-2.8	-2.8	63	-8.8	2	6	158	0.0	1028.3	0	0.000	0.0
20110226 00:25	-2.8	-2.8	-2.8	63	-8.8	3	6	158	0.0	1028.2	0	0.000	0.0
20110226 00:30	-2.8	-2.8	-2.8	64	-8.7	3	6	158	0.0	1028.3	0	0.000	0.0
20110226 00:35	-2.9	-2.9	-2.9	64	-8.7	2	6	158	0.0	1028.2	0	0.000	0.0
20110226 00:40	-3.0	-3.0	-3.0	64	-8.8	2	6	158	0.0	1028.2	0	0.000	0.0
20110226 00:45	-3.1	-3.1	-3.1	64	-8.9	2	5	158	0.0	1028.2	0	0.000	0.0
20110226 00:50	-3.1	-3.1	-3.1	64	-8.9	2	5	158	0.0	1028.2	0	0.000	0.0
20110226 00:55	-3.1	-3.1	-3.1	64	-8.9	2	6	158	0.0	1028.3	0	0.000	0.0
20110226 01:00	-3.2	-3.2	-3.2	64	-9.0	2	5	158	0.0	1028.3	0	0.025	0.0
20110226 01:05	-3.2	-3.2	-3.2	64	-9.1	2	5	158	0.0	1028.2	0	0.000	0.0
20110226 01:10	-3.2	-3.2	-3.2	65	-8.9	2	5	158	0.0	1028.1	0	0.000	0.0
20110226 01:15	-3.3	-3.3	-3.3	64	-9.1	0	5	158	0.0	1028.0	0	0.000	0.0
20110226 01:20	-3.3	-3.3	-3.3	64	-9.2	0	5	158	0.0	1028.0	0	0.000	0.0
20110226 01:25	-3.4	-3.4	-3.4	64	-9.2	3	6	158	0.0	1027.9	0	0.000	0.0
20110226 01:30	-3.4	-3.4	-3.4	64	-9.2	3	5	158	0.0	1028.0	0	0.000	0.0
20110226 01:35	-3.4	-3.4	-3.4	64	-9.3	2	5	158	0.0	1027.9	0	0.000	0.0
20110226 01:40	-3.5	-3.5	-3.5	64	-9.3	2	5	158	0.0	1027.8	0	0.000	0.0
20110226 01:45	-3.5	-3.5	-3.5	65	-9.1	2	6	158	0.0	1027.8	0	0.000	0.0
20110226 01:50	-3.5	-3.5	-3.5	65	-9.1	3	6	158	0.0	1027.8	0	0.000	0.0
20110226 01:55	-3.6	-3.6	-3.6	65	-9.2	3	6	158	0.0	1027.6	0	0.000	0.0
20110226 02:00	-3.6	-3.6	-3.6	65	-9.2	3	6	158	0.0	1027.5	0	0.025	0.0
20110226 02:05	-3.6	-3.6	-3.6	64	-9.4	3	8	158	0.0	1027.5	0	0.000	0.0
20110226 02:10	-3.6	-3.6	-3.6	64	-9.4	3	6	158	0.0	1027.4	0	0.000	0.0
20110226 02:15	-3.6	-3.6	-3.6	64	-9.4	2	5	158	0.0	1027.4	0	0.000	0.0
20110226 02:20	-3.6	-3.6	-3.6	64	-9.4	2	6	158	0.0	1027.3	0	0.000	0.0
20110226 02:25	-3.6	-3.6	-3.6	65	-9.2	3	6	158	0.0	1027.2	0	0.000	0.0
20110226 02:30	-3.6	-3.6	-3.6	65	-9.2	3	8	158	0.0	1027.1	0	0.000	0.0
20110226 02:35	-3.7	-3.7	-3.7	65	-9.3	3	8	158	0.0	1027.0	0	0.000	0.0
20110226 02:40	-3.7	-3.7	-3.7	65	-9.3	3	6	158	0.0	1027.0	0	0.000	0.0
20110226 02:45	-3.7	-3.7	-3.7	66	-9.1	3	8	158	0.0	1027.0	0	0.000	0.0
20110226 02:50	-3.7	-3.7	-3.7	66	-9.1	3	8	135	0.0	1027.0	0	0.000	0.0
20110226 02:55	-3.8	-3.8	-3.8	66	-9.2	2	8	135	0.0	1027.0	0	0.000	0.0
20110226 03:00	-3.8	-3.8	-3.8	66	-9.2	2	3	135	0.0	1026.9	0	0.025	0.0
20110226 03:05	-3.9	-3.9	-3.9	66	-9.3	0	5	135	0.0	1026.8	0	0.000	0.0
20110226 03:10	-4.0	-4.0	-4.0	67	-9.2	0	3	135	0.0	1026.7	0	0.000	0.0
20110226 03:15	-4.1	-4.1	-4.1	68	-9.1	0	2	135	0.0	1026.7	0	0.000	0.0
20110226 03:20	-4.2	-4.2	-4.2	68	-9.2	0	0	-100000	0.0	1026.6	0	0.000	0.0
20110226 03:25	-4.2	-4.2	-4.2	69	-9.0	0	0	-100000	0.0	1026.6	0	0.000	0.0
20110226 03:30	-4.3	-4.3	-4.3	70	-9.0	0	0	-100000	0.0	1026.5	0	0.000	0.0
20110226 03:35	-4.5	-4.5	-4.5	70	-9.1	2	5	135	0.0	1026.5	0	0.000	0.0
20110226 03:40	-4.6	-4.6	-4.6	70	-9.2	5	6	135	0.0	1026.4	0	0.000	0.0
20110226 03:45	-4.7	-4.7	-4.7	71	-9.2	5	6	135	0.0	1026.2	0	0.000	0.0
20110226 03:50	-4.8	-4.8	-4.8	71	-9.2	5	6	135	0.0	1026.2	0	0.000	0.0
20110226 03:55	-4.8	-4.8	-4.8	72	-9.0	3	6	135	0.0	1026.1	0	0.000	0.0
20110226 04:00	-4.8	-4.8	-4.8	71	-9.2	2	5	135	0.0	1026.1	0	0.025	0.0
20110226 04:05	-4.8	-4.8	-4.8	71	-9.2	0	5	135	0.0	1026.1	0	0.000	0.0
20110226 04:10	-4.8	-4.8	-4.8	71	-9.2	3	6	135	0.0	1026.1	0	0.000	0.0
20110226 04:15	-4.8	-4.8	-4.8	71	-9.2	5	8	135	0.0	1026.0	0	0.000	0.0
20110226 04:20	-4.7	-7.6	-4.7	71	-9.2	6	8	135	0.0	1025.9	0	0.000	0.0
20110226 04:25	-4.7	-4.7	-4.7	72	-9.0	5	8	135	0.0	1025.9	0	0.000	0.0
20110226 04:30	-4.8	-4.8	-4.8	71	-9.2	5	6	135	0.0	1026.0	0	0.000	0.0
20110226 04:35	-4.7	-4.7	-4.7	71	-9.2	5	8	135	0.0	1025.9	0	0.000	0.0
20110226 04:40	-4.7	-4.7	-4.7	71	-9.2	3	5	135	0.0	1025.9	0	0.000	0.0
20110226 04:45	-4.7	-4.7	-4.7	72	-9.0	2	5	135	0.0	1025.9	0	0.000	0.0
20110226 04:50	-4.7	-4.7	-4.7	72	-9.0	0	0	-100000	0.0	1025.8	0	0.000	0.0
20110226 04:55	-4.9	-4.9	-4.9	72	-9.1	0	0	-100000	0.0	1025.7	0	0.000	0.0
20110226 05:00	-5.1	-5.1	-5.1	72	-9.3	0	2	135	0.0	1025.7	0	0.025	0.0
20110226 05:05	-5.2	-5.2	-5.2	73	-9.2	0	3	135	0.0	1025.9	0	0.000	0.0
20110226 05:10	-5.3	-5.3	-5.3	73	-9.3	0	2	135	0.0	1025.8	0	0.000	0.0
20110226 05:15	-5.3	-5.3	-5.3	74	-9.2	2	5	135	0.0	1025.8	0	0.000	0.0
20110226 05:20	-5.3	-5.3	-5.3	74	-9.2	3	6	135	0.0	1025.8	0	0.000	0.0
20110226 05:25	-5.3	-5.3	-5.3	74	-9.2	5	6	135	0.0	1025.7	0	0.000	0.0
20110226 05:30	-5.2	-5.2	-5.2	74	-9.1	5	6	135	0.0	1025.6	0	0.000	0.0
20110226 05:35	-5.2	-5.2	-5.2	74	-9.1	5	6	135	0.0	1025.6	0	0.000	0.0
20110226 05:40	-5.2	-5.2	-5.2	74	-9.1	3	5	135	0.0	1025.6	0	0.000	0.0
20110226 05:45	-5.2	-5.2	-5.2	73	-9.3	0	3	135	0.0	1025.5	0	0.000	0.0
20110226 05:50	-5.2	-5.2	-5.2	73	-9.3	0	3	135	0.0	1025.5	0	0.000	0.0
20110226 05:55	-5.3	-5.3	-5.3	74	-9.2	3	6	135	0.0	1025.5	0	0.000	0.0
20110226 06:00	-5.4	-5.4	-5.4	73	-9.5	0	3	135	0.0	1025.5	0	0.000	0.0
20110226 06:05	-5.4	-5.4	-5.4	74	-9.3	0	0	-100000	0.0	1025.7	0	0.000	0.0
20110226 06:10	-5.5	-5.5	-5.5	74	-9.4	0	5	135	0.0	1025.7	0	0.000	0.0
20110226 06:15	-5.5	-5.5	-5.5	74	-9.4	0	5	135	0.0	1025.6	0	0.000	0.0
20110226 06:20	-5.5	-5.5	-5.5	73	-9.6	3	5	135	0.0	1025.5	0	0.000	0.0
20110226 06:25	-5.4	-5.4	-5.4	73	-9.5	2	5	135	0.0	1025.5	0	0.000	0.0
20110226 06:30	-5.4	-5.4	-5.4	73	-9.5	3	6	135	0.0	1025.4	0	0.000	0.0
20110226 06:35	-5.4	-5.4	-5.4	73	-9.5	5	6	135	0.0	1025.4	0	0.000	0.0
20110226 06:40	-5.4	-5.4	-5.4	73	-9.5	0	5	135	0.0	1025.4	0	0.000	0.0
20110226 06:45	-5.4	-5.4	-5.4	72	-9.7	3	8	135	0.0	1025.2	0	0.000	0.0
20110226 06:50	-5.4	-5.4	-5.4	72	-9.7	5	8	135	0.0	1025.2	0	0.000	0.0
20110226 06:55	-5.3	-8.3	-5.3	71	-9.8	6	8	135	0.0	1025.1	0	0.000	0.0
20110226 07:00	-5.3	-5.3	-5.3	71	-9.8	5	8	135	0.0	1025.1	0	0.000	0.0
20110226 07:05	-5.3	-5.3	-5.3	71	-9.7	5	10	135	0.0	1025.2	1	0.000	0.0
20110226 07:10	-5.3	-5.3	-5.3	71	-9.7	5	10	135	0.0	1025.1	5	0.000	0.0
20110226 07:15	-5.3	-5.3	-5.3	71	-9.7	5	8	135	0.0	1025.0	8	0.000	0.0
20110226 07:20	-5.3	-8.3	-5.3	71	-9.7	6	11	135	0.0	1024.9	10	0.000	0.0
20110226 07:25	-5.3	-5.3	-5.3	71	-9.7	5	8	135	0.0	1025.0	12	0.000	0.0
20110226 07:30	-5.3	-5.3	-5.3	71	-9.7	3	8	135	0.0	1025.0	13	0.000	0.0
20110226 07:35	-5.3	-5.3	-5.3	72	-9.5	3	6	135	0.0	1024.9	15	0.000	0.0
20110226 07:40	-5.3	-5.3	-5.3	72	-9.5	3	8	135	0.0	1024.9	17	0.000	0.0
20110226 07:45	-5.2	-5.2	-5.2	72	-9.5	5	8	135	0.0	1025.0	19	0.000	0.0
20110226 07:50	-5.2	-5.2	-5.2	72	-9.5	3	6	135	0.0	1024.9	20	0.000	0.0
20110226 07:55	-5.2	-5.2	-5.2	72	-9.4	3	8	135	0.0	1024.8	21	0.000	0.0
20110226 08:00	-5.1	-5.1	-5.1	72	-9.3	5	8	135	0.0	1024.8	23	0.000	0.0
20110226 08:05	-5.0	-5.0	-5.0	72	-9.3	5	8	135	0.0	1024.9	24	0.000	0.0
20110226 08:10	-4.8	-4.8	-4.8	72	-9.1	5	10	135	0.0	1024.9	25	0.000	0.0
20110226 08:15	-4.7	-4.7	-4.7	72	-9.0	5	11	135	0.0	1024.7	26	0.000	0.0
20110226 08:20	-4.6	-7.4	-4.6	72	-8.8	6	11	135	0.0	1024.7	26	0.000	0.0
20110226 08:25	-4.4	-4.4	-4.4	71	-8.9	5	11	135	0.0	1024.6	28	0.000	0.0
20110226 08:30	-4.3	-4.3	-4.3	71	-8.8	5	10	135	0.0	1024.7	29	0.000	0.0
20110226 08:35	-4.2	-4.2	-4.2	71	-8.7	5	11	135	0.0	1024.6	30	0.000	0.0
20110226 08:40	-4.1	-4.1	-4.1	70	-8.7	3	6	135	0.0	1024.6	31	0.000	0.0
20110226 08:45	-3.9	-3.9	-3.9	70	-8.6	5	14	135	0.0	1024.6	32	0.000	0.0
20110226 08:50	-3.8	-3.8	-3.8	70	-8.4	3	6	135	0.0	1024.6	32	0.000	0.0
20110226 08:55	-3.6	-3.6	-3.6	70	-8.3	2	6	135	0.0	1024.4	33	0.000	0.0
20110226 09:00	-3.4	-3.4	-3.4	69	-8.3	3	6	135	0.0	1024.2	33	0.025	0.0
20110226 09:05	-3.3	-3.3	-3.3	69	-8.1	3	6	135	0.0	1024.3	33	0.000	0.0
20110226 09:10	-3.1	-3.1	-3.1	67	-8.4	5	8	135	0.0	1024.2	33	0.000	0.0
20110226 09:15	-2.9	-2.9	-2.9	67	-8.2	5	10	158	0.0	1023.9	33	0.000	0.0
20110226 09:20	-2.7	-2.7	-2.7	67	-8.0	5	8	135	0.0	1023.8	35	0.000	0.0
20110226 09:25	-2.6	-2.6	-2.6	67	-7.8	5	10	112	0.0	1023.7	35	0.000	0.0
20110226 09:30	-2.4	-5.0	-2.4	66	-7.9	6	14	135	0.0	1023.6	35	0.000	0.0
20110226 09:35	-2.3	-5.4	-2.3	66	-7.8	8	11	112	0.0	1023.6	36	0.000	0.0
20110226 09:40	-2.1	-4.6	-2.1	66	-7.6	6	11	112	0.0	1023.5	37	0.000	0.0
20110226 09:45	-1.9	-4.4	-1.9	65	-7.6	6	11	135	0.0	1023.5	37	0.000	0.0
20110226 09:50	-1.7	-4.2	-1.7	65	-7.4	6	11	135	0.0	1023.1	38	0.000	0.0
20110226 09:55	-1.6	-4.6	-1.6	65	-7.3	8	14	112	0.0	1023.0	39	0.000	0.0
20110226 10:00	-1.3	-3.7	-1.3	65	-7.0	6	13	135	0.0	1022.9	39	0.025	0.0
20110226 10:05	-1.1	-4.5	-1.1	63	-7.2	10	14	112	0.0	1022.8	39	0.000	0.0
20110226 10:10	-0.9	-3.3	-0.9	63	-7.1	6	13	112	0.0	1022.8	39	0.000	0.0
20110226 10:15	-0.7	-4.1	-0.7	62	-7.1	10	16	135	0.0	1022.7	40	0.000	0.0
20110226 10:20	-0.5	-2.8	-0.5	61	-7.1	6	13	135	0.0	1022.6	40	0.000	0.0
20110226 10:25	-0.3	-2.5	-0.3	62	-6.7	6	11	135	0.0	1022.5	40	0.000	0.0
20110226 10:30	-0.1	-2.9	-0.1	60	-6.9	8	13	135	0.0	1022.3	40	0.000	0.0
20110226 10:35	0.1	-2.1	0.1	60	-6.8	6	14	112	0.0	1022.3	41	0.000	0.0
20110226 10:40	0.3	-1.9	0.3	58	-7.0	6	13	112	0.0	1022.1	42	0.000	0.0
20110226 10:45	0.4	-1.7	0.4	57	-7.1	6	10	135	0.0	1022.0	42	0.000	0.0
20110226 10:50	0.7	0.7	0.7	57	-6.9	5	8	158	0.0	1021.9	48	0.000	0.0
20110226 10:55	0.8	-1.2	0.8	56	-6.9	6	10	135	0.0	1021.7	467	0.000	1.1
20110226 11:00	1.1	1.1	1.1	55	-7.0	5	10	112	0.0	1021.6	473	0.051	1.5
20110226 11:05	1.3	-0.6	1.3	57	-6.2	6	11	112	0.0	1021.7	478	0.000	1.6
20110226 11:10	1.4	-1.1	1.4	57	-6.2	8	11	68	0.0	1021.6	483	0.000	1.6
20110226 11:15	1.7	-0.8	1.7	57	-5.9	8	11	68	0.0	1021.4	488	0.000	1.6
20110226 11:20	1.8	-0.1	1.8	55	-6.2	6	11	68	0.0	1021.2	494	0.000	1.7
20110226 11:25	1.9	1.9	1.9	52	-6.9	5	14	135	0.0	1021.2	499	0.000	1.7
20110226 11:30	2.3	2.3	2.3	52	-6.6	5	10	112	0.0	1021.2	504	0.000	1.8
20110226 11:35	2.5	0.2	2.5	49	-7.1	8	14	90	0.0	1021.1	509	0.000	1.8
20110226 11:40	2.6	2.6	2.6	50	-6.8	5	10	112	0.0	1020.9	511	0.000	1.8
20110226 11:45	2.8	1.0	2.8	49	-6.9	6	11	112	0.0	1020.8	513	0.000	1.9
20110226 11:50	3.1	1.4	3.1	49	-6.6	6	11	135	0.0	1020.7	519	0.000	1.9
20110226 11:55	3.3	1.6	3.3	47	-6.9	6	14	135	0.0	1020.5	521	0.000	1.9
20110226 12:00	3.4	1.2	3.4	47	-6.8	8	14	112	0.0	1020.5	522	0.203	1.9
20110226 12:05	3.4	1.3	3.4	48	-6.5	8	13	135	0.0	1020.4	525	0.000	2.0
20110226 12:10	3.5	1.4	3.5	46	-7.0	8	16	135	0.0	1020.3	529	0.000	2.0
20110226 12:15	3.5	1.9	3.5	49	-6.2	6	14	112	0.0	1020.2	528	0.000	2.0
20110226 12:20	3.4	1.8	3.4	48	-6.5	6	10	68	0.0	1020.0	529	0.000	2.0
20110226 12:25	3.3	1.2	3.3	49	-6.4	8	16	68	0.0	1019.9	529	0.000	2.0
20110226 12:30	3.4	1.8	3.4	47	-6.8	6	14	68	0.0	1019.7	529	0.000	2.0
20110226 12:35	3.3	1.1	3.3	47	-6.9	8	16	90	0.0	1019.7	527	0.000	2.0
20110226 12:40	3.3	1.2	3.3	47	-6.9	8	11	68	0.0	1019.6	529	0.000	2.0
20110226 12:45	3.4	1.3	3.4	48	-6.5	8	16	68	0.0	1019.6	527	0.000	2.0
20110226 12:50	3.6	1.4	3.6	49	-6.2	8	16	68	0.0	1019.4	527	0.000	2.0
20110226 12:55	3.8	3.8	3.8	47	-6.5	5	11	90	0.0	1019.4	525	0.000	2.0
20110226 13:00	3.8	1.7	3.8	47	-6.5	8	16	68	0.0	1019.3	523	0.229	2.0
20110226 13:05	3.8	2.2	3.8	47	-6.4	6	10	45	0.0	1019.2	520	0.000	2.0
20110226 13:10	3.8	2.2	3.8	45	-7.0	6	11	68	0.0	1019.2	517	0.000	1.9
20110226 13:15	3.9	3.9	3.9	48	-6.1	5	11	68	0.0	1019.1	515	0.000	1.9
20110226 13:20	4.1	4.1	4.1	46	-6.5	5	10	68	0.0	1019.0	510	0.000	1.9
20110226 13:25	4.2	2.2	4.2	48	-5.9	8	14	45	0.0	1018.7	507	0.000	1.9
20110226 13:30	4.3	4.3	4.3	47	-6.0	5	10	68	0.0	1018.7	504	0.000	1.8
20110226 13:35	4.3	2.8	4.3	48	-5.7	6	13	68	0.0	1018.6	498	0.000	1.8
20110226 13:40	4.3	2.8	4.3	52	-4.7	6	14	68	0.0	1018.6	492	0.000	1.8
20110226 13:45	4.3	2.4	4.3	51	-4.9	8	16	45	0.0	1018.6	488	0.000	1.7
20110226 13:50	4.3	2.3	4.3	51	-5.0	8	14	45	0.0	1018.5	483	0.000	1.7
20110226 13:55	4.3	2.3	4.3	51	-5.0	8	18	22	0.0	1018.4	476	0.000	1.6
20110226 14:00	4.3	1.9	4.3	51	-5.0	10	18	22	0.0	1018.3	472	0.229	1.6
20110226 14:05	4.2	1.5	4.2	51	-5.0	11	18	45	0.0	1018.4	464	0.000	1.6
20110226 14:10	4.3	2.0	4.3	52	-4.7	10	14	68	0.0	1018.2	459	0.000	1.5
20110226 14:15	4.5	2.5	4.5	53	-4.2	8	14	22	0.0	1018.3	452	0.000	1.5
20110226 14:20	4.6	2.7	4.6	50	-4.9	8	16	22	0.0	1018.2	445	0.000	1.4
20110226 14:25	4.6	2.2	4.6	50	-5.0	10	16	45	0.0	1018.2	438	0.000	1.4
20110226 14:30	4.6	3.1	4.6	51	-4.7	6	11	45	0.0	1018.0	430	0.000	1.3
20110226 14:35	4.7	2.4	4.7	51	-4.5	10	16	45	0.0	1018.0	421	0.000	1.3
20110226 14:40	4.6	2.7	4.6	49	-5.2	8	16	45	0.0	1017.8	415	0.000	1.3
20110226 14:45	4.7	2.7	4.7	51	-4.6	8	16	45	0.0	1017.6	406	0.000	1.2
20110226 14:50	4.8	2.9	4.8	51	-4.5	8	16	68	0.0	1017.4	397	0.000	1.2
20110226 14:55	4.8	2.5	4.8	50	-4.8	10	19	68	0.0	1017.4	388	0.000	1.1
20110226 15:00	4.9	3.0	4.9	50	-4.7	8	19	68	0.0	1017.2	380	0.203	1.1
20110226 15:05	4.8	2.6	4.8	51	-4.4	10	16	68	0.0	1017.2	370	0.000	1.0
20110226 15:10	4.8	2.2	4.8	50	-4.7	11	16	68	0.0	1017.1	359	0.000	1.0
20110226 15:15	4.8	2.6	4.8	52	-4.2	10	16	45	0.0	1017.1	349	0.000	0.9
20110226 15:20	4.8	2.6	4.8	49	-5.0	10	16	68	0.0	1017.2	338	0.000	0.9
20110226 15:25	4.9	3.5	4.9	50	-4.7	6	11	68	0.0	1017.1	329	0.000	0.8
20110226 15:30	5.0	2.7	5.0	49	-4.8	10	18	68	0.0	1017.0	319	0.000	0.8
20110226 15:35	5.1	3.2	5.1	50	-4.5	8	14	68	0.0	1017.0	308	0.000	0.7
20110226 15:40	5.1	5.1	5.1	50	-4.5	5	11	90	0.0	1017.0	298	0.000	0.7
20110226 15:45	5.2	3.9	5.2	50	-4.3	6	11	68	0.0	1016.9	286	0.000	0.6
20110226 15:50	5.3	5.3	5.3	48	-4.8	5	11	68	0.0	1016.8	275	0.000	0.6
20110226 15:55	5.3	3.5	5.3	47	-5.1	8	11	68	0.0	1016.7	261	0.000	0.5
20110226 16:00	5.2	3.8	5.2	47	-5.2	6	10	68	0.0	1016.6	245	0.152	0.5
20110226 16:05	5.1	5.1	5.1	47	-5.3	5	10	90	0.0	1016.7	231	0.000	0.4
20110226 16:10	5.1	3.7	5.1	47	-5.3	6	11	68	0.0	1016.7	215	0.000	0.0
20110226 16:15	5.1	5.1	5.1	49	-4.8	5	10	90	0.0	1016.7	199	0.000	0.0
20110226 16:20	5.1	3.7	5.1	50	-4.5	6	13	68	0.0	1016.5	183	0.000	0.0
20110226 16:25	5.1	5.1	5.1	50	-4.5	5	8	68	0.0	1016.5	167	0.000	0.0
20110226 16:30	4.9	4.9	4.9	48	-5.1	3	8	68	0.0	1016.4	152	0.000	0.0
20110226 16:35	4.9	4.9	4.9	49	-4.9	5	10	68	0.0	1016.4	139	0.000	0.0
20110226 16:40	4.8	4.8	4.8	49	-5.0	5	11	68	0.0	1016.4	126	0.000	0.0
20110226 16:45	4.8	3.3	4.8	52	-4.2	6	11	68	0.0	1016.4	85	0.000	0.0
20110226 16:50	4.5	3.0	4.5	54	-4.0	6	10	68	0.0	1016.5	26	0.000	0.0
20110226 16:55	4.2	4.2	4.2	55	-4.0	5	8	68	0.0	1016.5	30	0.000	0.0
20110226 17:00	4.1	2.5	4.1	57	-3.7	6	10	68	0.0	1016.4	64	0.076	0.0
20110226 17:05	3.8	3.8	3.8	59	-3.4	5	8	68	0.0	1016.5	23	0.000	0.0
20110226 17:10	3.7	3.7	3.7	59	-3.6	3	6	68	0.0	1016.5	20	0.000	0.0
20110226 17:15	3.4	3.4	3.4	62	-3.2	5	8	68	0.0	1016.5	23	0.000	0.0
20110226 17:20	3.1	3.1	3.1	62	-3.5	5	6	68	0.0	1016.5	20	0.000	0.0
20110226 17:25	2.8	2.8	2.8	63	-3.5	5	10	68	0.0	1016.4	15	0.000	0.0
20110226 17:30	2.6	2.6	2.6	63	-3.8	5	8	68	0.0	1016.4	10	0.000	0.0
20110226 17:35	2.3	2.3	2.3	64	-3.8	5	10	68	0.0	1016.5	8	0.000	0.0
20110226 17:40	2.1	2.1	2.1	64	-4.0	3	8	68	0.0	1016.4	6	0.000	0.0
20110226 17:45	1.9	1.9	1.9	64	-4.1	3	6	68	0.0	1016.3	4	0.000	0.0
20110226 17:50	1.8	1.8	1.8	64	-4.3	2	5	68	0.0	1016.4	0	0.000	0.0
20110226 17:55	1.7	1.7	1.7	64	-4.4	2	5	68	0.0	1016.3	0	0.000	0.0
20110226 18:00	1.6	1.6	1.6	64	-4.5	0	5	68	0.0	1016.3	0	0.025	0.0
20110226 18:05	1.4	1.4	1.4	65	-4.5	0	3	68	0.0	1016.2	0	0.000	0.0
20110226 18:10	1.3	1.3	1.3	65	-4.5	0	3	68	0.0	1016.3	0	0.000	0.0
20110226 18:15	1.3	1.3	1.3	64	-4.8	2	5	68	0.0	1016.2	0	0.000	0.0
20110226 18:20	1.2	1.2	1.2	65	-4.7	2	5	68	0.0	1016.1	0	0.000	0.0
20110226 18:25	1.1	1.1	1.1	65	-4.8	3	5	68	0.0	1016.1	0	0.000	0.0
20110226 18:30	0.9	0.9	0.9	64	-5.1	3	6	112	0.0	1016.0	0	0.000	0.0
20110226 18:35	0.9	0.9	0.9	65	-4.9	2	5	112	0.0	1016.0	0	0.000	0.0
20110226 18:40	0.8	0.8	0.8	65	-5.0	3	6	112	0.0	1016.0	0	0.000	0.0
20110226 18:45	0.7	0.7	0.7	65	-5.1	3	5	112	0.0	1016.1	0	0.000	0.0
20110226 18:50	0.7	0.7	0.7	65	-5.2	5	6	112	0.0	1016.1	0	0.000	0.0
20110226 18:55	0.6	0.6	0.6	65	-5.2	3	5	112	0.0	1016.0	0	0.000	0.0
20110226 19:00	0.6	0.6	0.6	66	-5.1	3	5	112	0.0	1016.0	0	0.025	0.0
20110226 19:05	0.5	0.5	0.5	66	-5.1	3	5	112	0.0	1015.8	0	0.000	0.0
20110226 19:10	0.4	0.4	0.4	66	-5.2	3	6	112	0.0	1015.8	0	0.000	0.0
20110226 19:15	0.3	0.3	0.3	66	-5.3	2	5	112	0.0	1015.8	0	0.000	0.0
20110226 19:20	0.3	0.3	0.3	66	-5.3	2	6	135	0.0	1015.7	0	0.000	0.0
20110226 19:25	0.3	0.3	0.3	66	-5.3	2	5	135	0.0	1015.6	0	0.000	0.0
20110226 19:30	0.2	0.2	0.2	66	-5.4	2	5	135	0.0	1015.8	0	0.000	0.0
20110226 19:35	0.2	0.2	0.2	66	-5.4	3	5	135	0.0	1015.6	0	0.000	0.0
20110226 19:40	0.1	0.1	0.1	66	-5.5	2	5	135	0.0	1015.6	0	0.000	0.0
20110226 19:45	0.1	0.1	0.1	66	-5.5	2	5	135	0.0	1015.6	-100000	0.000	0.0
20110226 19:50	0.1	0.1	0.1	66	-5.5	2	5	135	0.0	1015.5	0	0.000	0.0
20110226 19:55	0.1	0.1	0.1	66	-5.5	2	5	135	0.0	1015.4	0	0.000	0.0
20110226 20:00	0.0	0.0	0.0	66	-5.6	0	5	135	0.0	1015.4	0	0.025	0.0
20110226 20:05	-0.1	-0.1	-0.1	67	-5.4	2	5	135	0.0	1015.1	0	0.000	0.0
20110226 20:10	-0.2	-0.2	-0.2	67	-5.5	2	5	135	0.0	1015.1	0	0.000	0.0
20110226 20:15	-0.2	-0.2	-0.2	67	-5.6	0	3	135	0.0	1015.1	0	0.000	0.0
20110226 20:20	-0.3	-0.3	-0.3	67	-5.7	0	3	135	0.0	1015.1	0	0.000	0.0
20110226 20:25	-0.4	-0.4	-0.4	68	-5.6	2	5	135	0.0	1015.1	0	0.000	0.0
20110226 20:30	-0.5	-0.5	-0.5	68	-5.7	2	5	135	0.0	1015.1	0	0.000	0.0
20110226 20:35	-0.6	-0.6	-0.6	69	-5.5	2	3	135	0.0	1015.1	0	0.000	0.0
20110226 20:40	-0.7	-0.7	-0.7	69	-5.6	3	6	135	0.0	1015.1	0	0.000	0.0
20110226 20:45	-0.7	-0.7	-0.7	69	-5.7	3	6	135	0.0	1015.1	0	0.000	0.0
20110226 20:50	-0.8	-0.8	-0.8	69	-5.7	2	3	135	0.0	1015.1	0	0.000	0.0
20110226 20:55	-0.8	-0.8	-0.8	70	-5.6	0	3	135	0.0	1015.1	0	0.000	0.0
20110226 21:00	-0.9	-0.9	-0.9	70	-5.7	3	6	135	0.0	1015.1	0	0.025	0.0
20110226 21:05	-1.0	-1.0	-1.0	71	-5.6	5	10	158	0.0	1014.9	0	0.000	0.0
20110226 21:10	-1.0	-1.0	-1.0	71	-5.6	3	6	202	0.0	1014.9	0	0.000	0.0
20110226 21:15	-1.0	-1.0	-1.0	71	-5.6	5	8	202	0.0	1014.9	0	0.000	0.0
20110226 21:20	-1.1	-1.1	-1.1	72	-5.5	5	8	225	0.0	1015.0	0	0.000	0.0
20110226 21:25	-1.1	-1.1	-1.1	72	-5.5	5	8	225	0.0	1015.0	0	0.000	0.0
20110226 21:30	-1.2	-1.2	-1.2	72	-5.6	3	6	225	0.0	1014.9	0	0.000	0.0
20110226 21:35	-1.2	-1.2	-1.2	72	-5.6	3	6	225	0.0	1015.0	0	0.000	0.0
20110226 21:40	-1.2	-1.2	-1.2	73	-5.4	5	10	180	0.0	1014.9	0	0.000	0.0
20110226 21:45	-1.1	-1.1	-1.1	72	-5.5	5	8	202	0.0	1014.9	0	0.000	0.0
20110226 21:50	-0.9	-0.9	-0.9	71	-5.5	5	10	202	0.0	1014.9	0	0.000	0.0
20110226 21:55	-0.8	-0.8	-0.8	71	-5.4	3	5	202	0.0	1014.9	0	0.000	0.0
20110226 22:00	-0.6	-0.6	-0.6	71	-5.2	3	6	202	0.0	1014.9	0	0.025	0.0
20110226 22:05	-0.5	-0.5	-0.5	71	-5.1	3	5	202	0.0	1014.7	0	0.000	0.0
20110226 22:10	-0.4	-0.4	-0.4	72	-4.9	3	6	202	0.0	1014.6	0	0.000	0.0
20110226 22:15	-0.3	-0.3	-0.3	72	-4.7	3	5	202	0.0	1014.6	0	0.000	0.0
20110226 22:20	-0.2	-0.2	-0.2	73	-4.4	3	5	202	0.0	1014.3	0	0.000	0.0
20110226 22:25	-0.1	-0.1	-0.1	73	-4.3	3	5	202	0.0	1014.3	0	0.000	0.0
20110226 22:30	0.1	0.1	0.1	74	-4.0	2	5	202	0.0	1014.3	0	0.000	0.0
20110226 22:35	0.2	0.2	0.2	75	-3.7	3	5	202	0.0	1014.2	0	0.000	0.0
20110226 22:40	0.3	0.3	0.3	76	-3.4	3	6	202	0.0	1014.1	0	0.000	0.0
20110226 22:45	0.3	0.3	0.3	76	-3.4	3	6	202	0.0	1014.1	0	0.000	0.0
20110226 22:50	0.3	0.3	0.3	77	-3.2	3	8	202	0.0	1014.0	0	0.000	0.0
20110226 22:55	0.3	0.3	0.3	77	-3.2	5	8	202	0.0	1014.0	0	0.000	0.0
20110226 23:00	0.3	0.3	0.3	78	-3.0	3	8	202	0.0	1013.9	0	0.025	0.0
20110226 23:05	0.4	0.4	0.4	79	-2.8	3	6	202	0.0	1013.7	0	0.000	0.0
20110226 23:10	0.4	0.4	0.4	79	-2.8	3	6	202	0.0	1013.7	0	0.000	0.0
20110226 23:15	0.4	0.4	0.4	80	-2.6	3	5	202	0.0	1013.6	0	0.000	0.0
20110226 23:20	0.5	0.5	0.5	80	-2.5	2	5	202	0.0	1013.6	0	0.000	0.0
20110226 23:25	0.5	0.5	0.5	80	-2.5	2	6	202	0.0	1013.6	0	0.000	0.0
20110226 23:30	0.5	0.5	0.5	81	-2.4	2	5	202	0.0	1013.5	0	0.000	0.0
20110226 23:35	0.5	0.5	0.5	82	-2.2	3	5	202	0.0	1013.4	0	0.000	0.0
20110226 23:40	0.5	0.5	0.5	81	-2.4	2	5	202	0.2	1013.4	0	0.000	0.0
20110226 23:45	0.5	0.5	0.5	82	-2.2	3	6	202	0.0	1013.3	0	0.000	0.0
20110226 23:50	0.5	0.5	0.5	83	-2.0	2	5	202	0.0	1013.4	0	0.000	0.0
20110226 23:55	0.6	0.6	0.6	84	-1.8	3	10	202	0.0	1013.4	0	0.000	0.0



Please note the license to use and transfer of this data:
http://creativecommons.org/licenses/by-nc-sa/3.0/deed.en

Bitte beachten sie die Lizenz zur Verwertung und Weitergabe der Daten:
http://creativecommons.org/licenses/by-nc-sa/3.0/deed.de

zurück zur Übersicht der Archivdaten (Monats und Tagesdaten)

Cookies helfen bei der Bereitstellung von Inhalten. Durch die Nutzung dieser Seiten erklärst du dich damit einverstanden, dass Cookies auf deinem Rechner gespeichert werden. Weitere Information